createdAt,value
2023-03-24T00:00:27.194Z,100065.28
2023-03-24T00:02:54.496Z,100056.94
2023-03-24T00:05:22.844Z,100046.63
2023-03-24T00:07:54.758Z,100049.88
2023-03-24T00:10:23.299Z,100045.25
2023-03-24T00:12:51.416Z,100049.53
2023-03-24T00:15:21.339Z,100037.91
2023-03-24T00:17:53.098Z,100036.28
2023-03-24T00:20:22.492Z,100030.38
2023-03-24T00:22:57.256Z,100021.22
2023-03-24T00:25:28.624Z,100022.22
2023-03-24T00:27:58.498Z,100020.59
2023-03-24T00:30:26.436Z,100014.56
2023-03-24T00:32:54.171Z,100009.69
2023-03-24T00:35:22.068Z,100002.34
2023-03-24T00:37:52.238Z,100004.66
2023-03-24T00:40:21.211Z,99994.47
2023-03-24T00:42:50.743Z,99990.41
2023-03-24T00:45:23.561Z,99983.69
2023-03-24T00:47:54.300Z,99983.56
2023-03-24T00:50:27.544Z,99981.59
2023-03-24T00:52:55.997Z,99973.44
2023-03-24T00:55:23.529Z,99974.13
2023-03-24T00:57:53.217Z,99969.38
2023-03-24T01:00:25.606Z,99963.66
2023-03-24T01:02:54.968Z,99957.44
2023-03-24T01:05:28.224Z,99959.25
2023-03-24T01:08:04.613Z,99947.31
2023-03-24T01:10:53.191Z,99948.81
2023-03-24T01:13:26.175Z,99942.78
2023-03-24T01:15:57.017Z,99942.53
2023-03-24T01:18:24.511Z,99933.84
2023-03-24T01:20:53.887Z,99927.94
2023-03-24T01:23:26.001Z,99924.00
2023-03-24T01:25:54.678Z,99925.63
2023-03-24T01:28:25.253Z,99903.34
2023-03-24T01:30:53.456Z,99904.16
2023-03-24T01:33:21.695Z,99897.78
2023-03-24T01:35:48.824Z,99894.91
2023-03-24T01:38:15.980Z,99891.66
2023-03-24T01:40:47.258Z,99874.63
2023-03-24T01:43:24.190Z,99884.13
2023-03-24T01:46:22.586Z,99879.13
2023-03-24T01:48:51.966Z,99863.13
2023-03-24T01:51:27.607Z,99865.56
2023-03-24T01:54:00.601Z,99872.69
2023-03-24T01:56:31.746Z,99856.28
2023-03-24T01:59:02.972Z,99855.41
2023-03-24T02:01:31.715Z,99852.00
2023-03-24T02:04:00.513Z,99838.72
2023-03-24T02:06:27.762Z,99815.94
2023-03-24T02:08:58.114Z,99812.63
2023-03-24T02:11:28.627Z,99822.94
2023-03-24T02:13:55.957Z,99826.63
2023-03-24T02:16:54.967Z,99807.31
2023-03-24T02:19:47.219Z,99809.50
2023-03-24T02:22:39.436Z,99814.81
2023-03-24T02:25:43.674Z,99797.66
2023-03-24T02:28:52.972Z,99788.84
2023-03-24T02:31:29.405Z,99784.31
2023-03-24T02:34:07.598Z,99778.88
2023-03-24T02:36:54.791Z,99775.97
2023-03-24T02:39:37.487Z,99766.00
2023-03-24T02:42:23.793Z,99766.34
2023-03-24T02:45:11.919Z,99761.59
2023-03-24T02:47:57.784Z,99762.41
2023-03-24T02:50:33.795Z,99749.66
2023-03-24T02:53:20.639Z,99738.69
2023-03-24T02:56:01.216Z,99734.97
2023-03-24T02:58:49.849Z,99732.53
2023-03-24T03:01:31.890Z,99732.75
2023-03-24T03:04:12.706Z,99706.63
2023-03-24T03:06:43.651Z,99729.03
2023-03-24T03:09:16.192Z,99710.03
2023-03-24T03:11:49.366Z,99707.25
2023-03-24T03:14:26.337Z,99695.44
2023-03-24T03:17:01.757Z,99683.16
2023-03-24T03:19:36.626Z,99684.78
2023-03-24T03:25:56.567Z,99678.84
2023-03-24T03:28:30.077Z,99669.84
2023-03-24T03:31:06.129Z,99670.50
2023-03-24T03:33:40.817Z,99656.38
2023-03-24T03:36:17.667Z,99655.94
2023-03-24T03:39:14.072Z,99643.19
2023-03-24T03:41:41.172Z,99646.53
2023-03-24T03:44:08.327Z,99644.69
2023-03-24T03:46:36.675Z,99637.50
2023-03-24T03:49:06.706Z,99636.69
2023-03-24T03:51:34.883Z,99634.13
2023-03-24T03:54:06.870Z,99627.41
2023-03-24T03:56:36.926Z,99630.75
2023-03-24T03:59:06.378Z,99624.38
2023-03-24T04:01:37.520Z,99618.44
2023-03-24T04:04:18.217Z,99617.41
2023-03-24T04:06:54.017Z,99605.56
2023-03-24T04:09:26.896Z,99603.59
2023-03-24T04:12:19.113Z,99598.50
2023-03-24T04:15:10.019Z,99596.63
2023-03-24T04:17:59.955Z,99591.56
2023-03-24T04:20:34.548Z,99558.41
2023-03-24T04:23:15.081Z,99586.44
2023-03-24T04:26:10.651Z,99580.16
2023-03-24T04:28:43.521Z,99574.22
2023-03-24T04:31:26.211Z,99566.34
2023-03-24T04:34:03.813Z,99569.47
2023-03-24T04:36:44.987Z,99572.38
2023-03-24T04:39:17.305Z,99561.94
2023-03-24T04:41:47.643Z,99568.22
2023-03-24T04:44:17.829Z,99566.09
2023-03-24T04:46:44.923Z,99565.72
2023-03-24T04:49:11.860Z,99567.38
2023-03-24T04:51:39.236Z,99561.44
2023-03-24T04:54:06.316Z,99552.88
2023-03-24T04:57:02.018Z,99553.69
2023-03-24T04:59:36.058Z,99558.47
2023-03-24T05:02:03.430Z,99557.50
2023-03-24T05:04:31.313Z,99540.34
2023-03-24T05:06:58.417Z,99547.16
2023-03-24T05:09:26.089Z,99542.78
2023-03-24T05:11:53.267Z,99541.16
2023-03-24T05:14:20.665Z,99544.84
2023-03-24T05:16:47.779Z,99519.03
2023-03-24T05:19:15.084Z,99538.56
2023-03-24T05:21:42.433Z,99537.78
2023-03-24T05:24:09.309Z,99530.31
2023-03-24T05:26:36.301Z,99541.09
2023-03-24T05:29:03.622Z,99519.28
2023-03-24T05:31:30.765Z,99521.00
2023-03-24T05:33:57.590Z,99513.31
2023-03-24T05:36:24.553Z,99513.88
2023-03-24T05:38:51.522Z,99518.44
2023-03-24T05:41:18.493Z,99516.47
2023-03-24T05:43:48.144Z,99510.78
2023-03-24T05:46:15.211Z,99507.28
2023-03-24T05:48:42.365Z,99507.75
2023-03-24T05:51:09.485Z,99503.34
2023-03-24T05:53:36.674Z,99501.91
2023-03-24T05:56:03.717Z,99502.47
2023-03-24T05:58:30.763Z,99498.69
2023-03-24T06:00:57.754Z,99500.75
2023-03-24T06:03:25.240Z,99497.59
2023-03-24T06:05:53.127Z,99496.63
2023-03-24T06:08:20.130Z,99504.91
2023-03-24T06:10:46.837Z,99422.25
2023-03-24T06:13:13.781Z,99428.81
2023-03-24T06:15:43.092Z,99491.59
2023-03-24T06:18:10.463Z,99492.78
2023-03-24T06:20:37.486Z,99473.09
2023-03-24T06:23:04.448Z,99497.81
2023-03-24T06:25:31.483Z,99498.16
2023-03-24T06:28:04.410Z,99497.38
2023-03-24T06:30:31.424Z,99495.81
2023-03-24T06:32:58.441Z,99498.78
2023-03-24T06:35:25.924Z,99505.09
2023-03-24T06:37:53.176Z,99511.94
2023-03-24T06:40:20.335Z,99498.63
2023-03-24T06:42:47.559Z,99522.91
2023-03-24T06:45:14.454Z,99535.66
2023-03-24T06:47:41.486Z,99564.81
2023-03-24T06:50:08.723Z,99580.81
2023-03-24T06:52:35.840Z,99568.31
2023-03-24T06:55:03.113Z,99585.41
2023-03-24T06:57:30.211Z,99599.34
2023-03-24T06:59:57.496Z,99605.19
2023-03-24T07:02:24.519Z,99611.03
2023-03-24T07:04:54.554Z,99600.59
2023-03-24T07:07:56.896Z,99607.69
2023-03-24T07:10:10.558Z,99624.69
2023-03-24T07:12:37.849Z,99625.72
2023-03-24T07:15:05.060Z,99639.28
2023-03-24T07:17:32.033Z,99639.94
2023-03-24T07:19:59.276Z,99602.22
2023-03-24T07:22:26.246Z,99646.03
2023-03-24T07:24:54.359Z,99662.59
2023-03-24T07:27:21.478Z,99667.47
2023-03-24T07:29:48.357Z,99657.38
2023-03-24T07:32:15.337Z,99633.81
2023-03-24T07:34:44.607Z,99670.09
2023-03-24T07:37:11.947Z,99681.75
2023-03-24T07:39:38.893Z,99688.72
2023-03-24T07:42:06.393Z,99687.50
2023-03-24T07:44:33.628Z,99696.03
2023-03-24T07:47:00.556Z,99716.81
2023-03-24T07:49:27.687Z,99710.88
2023-03-24T07:51:54.569Z,99680.97
2023-03-24T07:54:21.888Z,99717.63
2023-03-24T07:56:48.853Z,99719.88
2023-03-24T07:59:16.190Z,99721.19
2023-03-24T08:01:44.217Z,99718.88
2023-03-24T08:04:14.351Z,99725.41
2023-03-24T08:06:43.823Z,99728.78
2023-03-24T08:09:11.701Z,99730.22
2023-03-24T08:11:39.608Z,99706.59
2023-03-24T08:14:06.623Z,99745.97
2023-03-24T08:16:33.494Z,99745.78
2023-03-24T08:19:00.843Z,99764.03
2023-03-24T08:21:27.882Z,99763.06
2023-03-24T08:23:54.850Z,99776.66
2023-03-24T08:26:22.847Z,99784.75
2023-03-24T08:28:49.960Z,99791.75
2023-03-24T08:31:17.019Z,99799.66
2023-03-24T08:33:44.536Z,99786.56
2023-03-24T08:36:14.347Z,99800.56
2023-03-24T08:38:41.998Z,99797.78
2023-03-24T08:41:08.942Z,99772.78
2023-03-24T08:43:39.999Z,99801.09
2023-03-24T08:46:11.201Z,99807.56
2023-03-24T08:48:41.295Z,99809.66
2023-03-24T08:51:16.723Z,99815.63
2023-03-24T08:53:44.035Z,99817.84
2023-03-24T08:56:11.359Z,99811.44
2023-03-24T08:58:38.512Z,99811.47
2023-03-24T09:01:05.504Z,99811.56
2023-03-24T09:03:32.293Z,99819.56
2023-03-24T09:05:59.664Z,99826.66
2023-03-24T09:08:26.813Z,99839.31
2023-03-24T09:10:54.082Z,99840.91
2023-03-24T09:13:21.514Z,99844.25
2023-03-24T09:15:52.165Z,99848.94
2023-03-24T09:18:21.348Z,99854.78
2023-03-24T09:20:49.412Z,99858.19
2023-03-24T09:23:17.023Z,99840.25
2023-03-24T09:25:44.048Z,99861.97
2023-03-24T09:28:11.170Z,99867.72
2023-03-24T09:30:38.284Z,99865.28
2023-03-24T09:33:05.361Z,99859.06
2023-03-24T09:35:32.260Z,99851.72
2023-03-24T09:37:59.393Z,99862.63
2023-03-24T09:40:32.640Z,99843.09
2023-03-24T09:43:25.730Z,99863.84
2023-03-24T09:45:58.954Z,99862.59
2023-03-24T09:48:44.520Z,99877.06
2023-03-24T09:51:20.902Z,99884.56
2023-03-24T09:54:12.344Z,99886.75
2023-03-24T09:56:41.794Z,99890.78
2023-03-24T09:59:18.098Z,99891.78
2023-03-24T10:01:46.040Z,99908.34
2023-03-24T10:04:22.525Z,99877.25
2023-03-24T10:06:55.847Z,99916.19
2023-03-24T10:09:25.241Z,99906.66
2023-03-24T10:12:00.822Z,99907.97
2023-03-24T10:15:07.080Z,99914.19
2023-03-24T10:17:54.561Z,99906.03
2023-03-24T10:20:27.137Z,99899.44
2023-03-24T10:23:17.647Z,99909.84
2023-03-24T10:26:21.892Z,99902.72
2023-03-24T10:29:02.716Z,99909.72
2023-03-24T10:31:33.350Z,99910.00
2023-03-24T10:34:01.163Z,99914.84
2023-03-24T10:36:30.041Z,99911.09
2023-03-24T10:38:58.724Z,99906.63
2023-03-24T10:41:29.642Z,99913.91
2023-03-24T10:43:58.439Z,99910.06
2023-03-24T10:46:30.568Z,99924.72
2023-03-24T10:49:12.523Z,99927.47
2023-03-24T10:51:41.459Z,99928.13
2023-03-24T10:54:20.580Z,99930.69
2023-03-24T10:56:50.618Z,99921.91
2023-03-24T10:59:32.466Z,99929.28
2023-03-24T11:02:09.890Z,99926.91
2023-03-24T11:04:42.109Z,99940.97
2023-03-24T11:07:20.383Z,99921.00
2023-03-24T11:09:59.123Z,99903.53
2023-03-24T11:12:29.199Z,99914.69
2023-03-24T11:15:21.302Z,99916.00
2023-03-24T11:17:58.126Z,99915.88
2023-03-24T11:20:28.220Z,99902.94
2023-03-24T11:23:10.383Z,99918.56
2023-03-24T11:25:40.717Z,99923.84
2023-03-24T11:28:14.930Z,99922.22
2023-03-24T11:31:12.152Z,99934.22
2023-03-24T11:33:50.315Z,99936.84
2023-03-24T11:36:35.237Z,99933.03
2023-03-24T11:39:21.850Z,99930.00
2023-03-24T11:42:10.935Z,99936.28
2023-03-24T11:44:51.585Z,99941.75
2023-03-24T11:47:31.340Z,99931.78
2023-03-24T11:50:11.629Z,99940.13
2023-03-24T11:52:48.332Z,99942.56
2023-03-24T11:55:39.774Z,99935.50
2023-03-24T11:58:32.644Z,99941.72
2023-03-24T12:01:14.104Z,99938.06
2023-03-24T12:04:08.561Z,99933.25
2023-03-24T12:06:58.482Z,99934.22
2023-03-24T12:09:42.446Z,99949.81
2023-03-24T12:12:51.296Z,99960.34
2023-03-24T12:15:29.452Z,99974.53
2023-03-24T12:18:24.440Z,99961.53
2023-03-24T12:21:25.042Z,99967.88
2023-03-24T12:24:02.478Z,99984.50
2023-03-24T12:26:31.156Z,99981.78
2023-03-24T12:29:30.866Z,99980.34
2023-03-24T12:32:35.306Z,99986.06
2023-03-24T12:35:27.179Z,99978.56
2023-03-24T12:38:30.587Z,99978.09
2023-03-24T12:41:12.673Z,99979.06
2023-03-24T12:43:42.493Z,99980.78
2023-03-24T12:46:34.150Z,99987.13
2023-03-24T12:49:16.746Z,99977.16
2023-03-24T12:52:05.199Z,99982.63
2023-03-24T12:55:05.050Z,99970.59
2023-03-24T12:57:41.488Z,99975.19
2023-03-24T13:00:29.060Z,99974.06
2023-03-24T13:03:00.842Z,99981.06
2023-03-24T13:05:32.036Z,99981.72
2023-03-24T13:08:17.008Z,99983.75
2023-03-24T13:10:44.798Z,99977.16
2023-03-24T13:13:18.573Z,99982.00
2023-03-24T13:16:17.642Z,99986.41
2023-03-24T13:18:54.580Z,99975.63
2023-03-24T13:21:26.203Z,99982.97
2023-03-24T13:24:11.113Z,99986.94
2023-03-24T13:26:58.542Z,99969.41
2023-03-24T13:29:49.415Z,99977.16
2023-03-24T13:32:25.949Z,99976.56
2023-03-24T13:35:13.110Z,99987.91
2023-03-24T13:37:45.693Z,99986.88
2023-03-24T13:40:30.589Z,99984.34
2023-03-24T13:43:00.424Z,99983.25
2023-03-24T13:45:48.346Z,99985.34
2023-03-24T13:48:22.495Z,99984.38
2023-03-24T13:50:56.088Z,99986.88
2023-03-24T13:53:43.889Z,99955.69
2023-03-24T13:56:12.804Z,99983.97
2023-03-24T13:59:05.631Z,99985.94
2023-03-24T14:01:35.760Z,99976.13
2023-03-24T14:04:25.586Z,99977.91
2023-03-24T14:06:57.886Z,99984.53
2023-03-24T14:09:33.920Z,99977.97
2023-03-24T14:12:03.883Z,99971.28
2023-03-24T14:14:35.784Z,99983.59
2023-03-24T14:17:08.687Z,99974.91
2023-03-24T14:19:40.742Z,99965.06
2023-03-24T14:22:30.824Z,99974.13
2023-03-24T14:25:01.439Z,99968.09
2023-03-24T14:27:45.108Z,99970.03
2023-03-24T14:30:41.337Z,99968.41
2023-03-24T14:33:25.070Z,99972.22
2023-03-24T14:36:12.327Z,99969.75
2023-03-24T14:38:43.583Z,99979.44
2023-03-24T14:41:17.272Z,99963.28
2023-03-24T14:43:44.025Z,99967.41
2023-03-24T14:46:22.112Z,99975.72
2023-03-24T14:49:12.360Z,99974.84
2023-03-24T14:51:44.619Z,99972.03
2023-03-24T14:54:27.557Z,99947.25
2023-03-24T14:56:57.028Z,99969.69
2023-03-24T14:59:27.516Z,99969.50
2023-03-24T15:02:03.162Z,99963.22
2023-03-24T15:04:30.232Z,99970.53
2023-03-24T15:06:57.076Z,99966.53
2023-03-24T15:09:24.062Z,99969.00
2023-03-24T15:11:52.286Z,99962.50
2023-03-24T15:14:24.042Z,99967.56
2023-03-24T15:16:55.058Z,99964.22
2023-03-24T15:19:25.889Z,99963.34
2023-03-24T15:22:05.675Z,99970.53
2023-03-24T15:24:38.378Z,99964.31
2023-03-24T15:27:08.318Z,99964.81
2023-03-24T15:29:40.753Z,99949.47
2023-03-24T15:32:15.830Z,99954.22
2023-03-24T15:35:00.978Z,99961.94
2023-03-24T15:37:43.257Z,99952.22
2023-03-24T15:40:30.506Z,99947.13
2023-03-24T15:43:08.195Z,99952.25
2023-03-24T15:45:44.020Z,99949.47
2023-03-24T15:48:18.787Z,99945.13
2023-03-24T15:51:06.965Z,99957.63
2023-03-24T15:53:33.694Z,99947.59
2023-03-24T15:56:17.658Z,99948.00
2023-03-24T15:58:53.761Z,99948.84
2023-03-24T16:01:31.869Z,99947.44
2023-03-24T16:04:01.505Z,99945.44
2023-03-24T16:06:31.066Z,99940.88
2023-03-24T16:09:05.150Z,99937.19
2023-03-24T16:11:31.953Z,99945.28
2023-03-24T16:14:01.623Z,99950.91
2023-03-24T16:16:30.688Z,99949.44
2023-03-24T16:18:59.558Z,99942.94
2023-03-24T16:21:29.468Z,99944.22
2023-03-24T16:23:58.201Z,99942.09
2023-03-24T16:26:27.621Z,99952.34
2023-03-24T16:28:59.338Z,99948.31
2023-03-24T16:31:32.442Z,99949.84
2023-03-24T16:33:59.619Z,99959.69
2023-03-24T16:36:27.377Z,99897.25
2023-03-24T16:38:56.382Z,99949.50
2023-03-24T16:41:23.920Z,99955.81
2023-03-24T16:43:51.242Z,99956.19
2023-03-24T16:46:31.313Z,99949.69
2023-03-24T16:48:59.274Z,99951.47
2023-03-24T16:51:27.359Z,99952.31
2023-03-24T16:53:54.186Z,99952.19
2023-03-24T16:56:22.819Z,99960.72
2023-03-24T16:58:55.903Z,99964.97
2023-03-24T17:01:34.017Z,99961.09
2023-03-24T17:04:03.662Z,99968.38
2023-03-24T17:06:33.256Z,99967.25
2023-03-24T17:09:00.361Z,99971.03
2023-03-24T17:11:33.140Z,99970.72
2023-03-24T17:14:05.060Z,99971.47
2023-03-24T17:16:37.027Z,99964.72
2023-03-24T17:19:07.636Z,99971.31
2023-03-24T17:21:38.467Z,99965.94
2023-03-24T17:24:07.118Z,99964.31
2023-03-24T17:26:33.883Z,99978.63
2023-03-24T17:29:00.706Z,99979.09
2023-03-24T17:31:27.776Z,99984.38
2023-03-24T17:33:54.909Z,99984.50
2023-03-24T17:36:21.734Z,99986.91
2023-03-24T17:38:49.014Z,99994.63
2023-03-24T17:41:16.157Z,99990.31
2023-03-24T17:43:46.849Z,100004.75
2023-03-24T17:46:14.393Z,100001.06
2023-03-24T17:48:43.510Z,100011.53
2023-03-24T17:51:12.066Z,100000.97
2023-03-24T17:53:42.112Z,100022.22
2023-03-24T17:56:09.309Z,100016.75
2023-03-24T17:58:36.723Z,100012.56
2023-03-24T18:01:09.284Z,100017.19
2023-03-24T18:03:38.359Z,99980.50
2023-03-24T18:06:12.383Z,100028.16
2023-03-24T18:08:40.066Z,100033.78
2023-03-24T18:11:13.066Z,100035.50
2023-03-24T18:13:40.445Z,100038.38
2023-03-24T18:16:19.957Z,100039.81
2023-03-24T18:18:48.168Z,100046.75
2023-03-24T18:21:15.186Z,100054.50
2023-03-24T18:23:41.988Z,100053.16
2023-03-24T18:26:09.604Z,100052.44
2023-03-24T18:28:39.153Z,100057.09
2023-03-24T18:31:20.335Z,100053.66
2023-03-24T18:33:48.803Z,100050.88
2023-03-24T18:36:21.282Z,100058.06
2023-03-24T18:38:48.956Z,100052.88
2023-03-24T18:41:18.658Z,100062.34
2023-03-24T18:43:48.252Z,100051.34
2023-03-24T18:46:16.379Z,100048.91
2023-03-24T18:48:44.090Z,100057.38
2023-03-24T18:51:11.582Z,100040.47
2023-03-24T18:53:38.774Z,100057.03
2023-03-24T18:56:07.795Z,100057.84
2023-03-24T18:58:35.854Z,100054.19
2023-03-24T19:01:15.225Z,100034.03
2023-03-24T19:03:44.317Z,100052.09
2023-03-24T19:06:14.197Z,100053.97
2023-03-24T19:08:44.970Z,100043.31
2023-03-24T19:11:14.031Z,100052.97
2023-03-24T19:13:44.288Z,100060.00
2023-03-24T19:16:12.829Z,100064.69
2023-03-24T19:18:40.123Z,100058.53
2023-03-24T19:21:07.548Z,100053.91
2023-03-24T19:23:35.149Z,100064.75
2023-03-24T19:26:03.142Z,100062.50
2023-03-24T19:28:32.454Z,100058.09
2023-03-24T19:31:05.523Z,100060.22
2023-03-24T19:33:32.680Z,100064.00
2023-03-24T19:35:59.698Z,100062.03
2023-03-24T19:38:26.555Z,100059.72
2023-03-24T19:40:54.221Z,100060.72
2023-03-24T19:43:22.509Z,100069.06
2023-03-24T19:45:54.043Z,100056.00
2023-03-24T19:48:21.804Z,100058.47
2023-03-24T19:50:53.671Z,100048.19
2023-03-24T19:53:23.268Z,100041.81
2023-03-24T19:55:52.252Z,100042.78
2023-03-24T19:58:19.340Z,100051.44
2023-03-24T20:00:46.222Z,100050.91
2023-03-24T20:03:13.311Z,100054.00
2023-03-24T20:05:40.850Z,100044.38
2023-03-24T20:08:07.793Z,100048.94
2023-03-24T20:10:36.604Z,100049.91
2023-03-24T20:13:03.674Z,100044.34
2023-03-24T20:15:30.587Z,100043.66
2023-03-24T20:17:58.015Z,100042.03
2023-03-24T20:20:25.039Z,100024.72
2023-03-24T20:22:52.129Z,100036.94
2023-03-24T20:25:22.265Z,100041.84
2023-03-24T20:27:49.387Z,100031.53
2023-03-24T20:30:18.174Z,100030.72
2023-03-24T20:32:45.215Z,100034.84
2023-03-24T20:35:12.607Z,100040.03
2023-03-24T20:37:40.707Z,100049.22
2023-03-24T20:40:09.818Z,100043.06
2023-03-24T20:42:37.968Z,100040.13
2023-03-24T20:45:07.308Z,100037.88
2023-03-24T20:47:34.864Z,100035.09
2023-03-24T20:50:01.869Z,100032.34
2023-03-24T20:52:30.200Z,100033.00
2023-03-24T20:54:57.112Z,100034.81
2023-03-24T20:57:25.938Z,100023.56
2023-03-24T20:59:53.457Z,100030.06
2023-03-24T21:02:20.578Z,100030.22
2023-03-24T21:04:47.445Z,100017.03
2023-03-24T21:07:14.529Z,100023.25
2023-03-24T21:09:41.547Z,100022.59
2023-03-24T21:12:09.881Z,100023.88
2023-03-24T21:14:37.368Z,100031.88
2023-03-24T21:17:04.612Z,100031.53
2023-03-24T21:19:33.948Z,100025.84
2023-03-24T21:22:03.301Z,100025.03
2023-03-24T21:24:30.351Z,100029.09
2023-03-24T21:26:57.803Z,100026.03
2023-03-24T21:29:26.254Z,100023.88
2023-03-24T21:31:53.341Z,100022.41
2023-03-24T21:34:20.704Z,100018.28
2023-03-24T21:36:49.671Z,100012.75
2023-03-24T21:39:17.328Z,100010.00
2023-03-24T21:41:44.490Z,100012.97
2023-03-24T21:44:11.694Z,100006.28
2023-03-24T21:46:38.546Z,100006.56
2023-03-24T21:49:05.667Z,100008.06
2023-03-24T21:51:34.964Z,100012.31
2023-03-24T21:54:06.905Z,100000.41
2023-03-24T21:56:35.336Z,100003.81
2023-03-24T21:59:02.875Z,100003.19
2023-03-24T22:01:31.381Z,99994.53
2023-03-24T22:03:59.116Z,100008.38
2023-03-24T22:06:29.349Z,100006.91
2023-03-24T22:09:06.586Z,99976.88
2023-03-24T22:11:35.373Z,100001.38
2023-03-24T22:14:02.579Z,100000.69
2023-03-24T22:16:33.282Z,99995.97
2023-03-24T22:19:01.905Z,99989.78
2023-03-24T22:21:28.770Z,99980.47
2023-03-24T22:23:55.493Z,99982.06
2023-03-24T22:26:22.136Z,99979.44
2023-03-24T22:28:50.748Z,99981.41
2023-03-24T22:31:17.415Z,99976.66
2023-03-24T22:33:45.060Z,99977.31
2023-03-24T22:36:12.945Z,99983.00
2023-03-24T22:38:40.261Z,99979.09
2023-03-24T22:41:10.095Z,99988.56
2023-03-24T22:43:39.729Z,99984.19
2023-03-24T22:46:07.193Z,100010.16
2023-03-24T22:48:34.489Z,100002.38
2023-03-24T22:51:01.593Z,100001.34
2023-03-24T22:53:28.945Z,99994.16
2023-03-24T22:55:56.393Z,99994.03
2023-03-24T22:58:23.551Z,99991.75
2023-03-24T23:00:54.405Z,99925.03
2023-03-24T23:03:21.356Z,99993.03
2023-03-24T23:05:49.422Z,99991.59
2023-03-24T23:08:16.738Z,99980.16
2023-03-24T23:10:45.628Z,99985.03
2023-03-24T23:13:12.918Z,99980.97
2023-03-24T23:15:44.893Z,99981.44
2023-03-24T23:18:12.230Z,99970.66
2023-03-24T23:20:39.457Z,99961.84
2023-03-24T23:23:07.066Z,99972.63
2023-03-24T23:25:43.491Z,99973.75
2023-03-24T23:28:12.205Z,99964.59
2023-03-24T23:30:40.261Z,99961.19
2023-03-24T23:33:14.840Z,99961.03
2023-03-24T23:35:42.129Z,99960.72
2023-03-24T23:38:09.699Z,99962.00
2023-03-24T23:40:36.575Z,99961.03
2023-03-24T23:43:03.731Z,99954.72
2023-03-24T23:45:30.547Z,99963.69
2023-03-24T23:47:57.637Z,99959.09
2023-03-24T23:50:24.687Z,99959.91
2023-03-24T23:52:51.782Z,99957.19
2023-03-24T23:55:18.720Z,99957.81
2023-03-24T23:57:46.404Z,99954.22
